createdAt,value
2017-08-15T00:01:23.000Z,88.40
2017-08-15T00:03:50.700Z,88.40
2017-08-15T00:06:18.324Z,87.40
2017-08-15T00:08:45.979Z,88.00
2017-08-15T00:11:13.613Z,88.10
2017-08-15T00:13:41.253Z,88.80
2017-08-15T00:16:08.934Z,87.10
2017-08-15T00:18:36.580Z,86.70
2017-08-15T00:21:04.257Z,86.70
2017-08-15T00:23:31.892Z,87.40
2017-08-15T00:26:00.289Z,88.00
2017-08-15T00:28:27.965Z,88.00
2017-08-15T00:30:55.600Z,87.60
2017-08-15T00:33:23.265Z,87.20
2017-08-15T00:35:50.902Z,87.00
2017-08-15T00:38:18.537Z,87.50
2017-08-15T00:40:46.230Z,87.10
2017-08-15T00:43:13.851Z,87.40
2017-08-15T00:45:41.521Z,87.80
2017-08-15T00:48:09.147Z,88.50
2017-08-15T00:50:36.775Z,88.80
2017-08-15T00:53:04.445Z,89.40
2017-08-15T00:55:32.081Z,89.70
2017-08-15T00:57:59.757Z,89.00
2017-08-15T01:00:28.148Z,89.70
2017-08-15T01:02:55.777Z,89.60
2017-08-15T01:05:24.211Z,88.50
2017-08-15T01:07:51.848Z,88.40
2017-08-15T01:10:19.596Z,88.80
2017-08-15T01:12:47.227Z,88.30
2017-08-15T01:15:14.921Z,87.30
2017-08-15T01:17:42.571Z,87.50
2017-08-15T01:20:10.204Z,87.80
2017-08-15T01:22:37.884Z,88.10
2017-08-15T01:25:05.506Z,87.70
2017-08-15T01:27:33.136Z,88.30
2017-08-15T01:30:00.798Z,87.50
2017-08-15T01:32:28.424Z,87.00
2017-08-15T01:34:56.081Z,85.70
2017-08-15T01:37:23.729Z,85.50
2017-08-15T01:39:51.365Z,82.80
2017-08-15T01:42:19.035Z,82.70
2017-08-15T01:44:46.747Z,84.70
2017-08-15T01:47:14.425Z,84.10
2017-08-15T01:49:42.051Z,84.30
2017-08-15T01:52:09.704Z,85.00
2017-08-15T01:54:37.363Z,82.10
2017-08-15T01:57:04.997Z,81.50
2017-08-15T01:59:32.667Z,81.30
2017-08-15T02:02:01.059Z,80.90
2017-08-15T02:04:28.686Z,80.90
2017-08-15T02:06:57.116Z,81.00
2017-08-15T02:09:24.781Z,80.80
2017-08-15T02:11:52.453Z,83.10
2017-08-15T02:14:20.089Z,83.60
2017-08-15T02:16:48.488Z,83.10
2017-08-15T02:19:16.139Z,82.90
2017-08-15T02:21:43.805Z,82.50
2017-08-15T02:24:11.456Z,83.20
2017-08-15T02:26:39.088Z,81.10
2017-08-15T02:29:06.732Z,80.50
2017-08-15T02:31:34.458Z,81.30
2017-08-15T02:34:02.101Z,80.60
2017-08-15T02:36:29.767Z,80.20
2017-08-15T02:38:57.400Z,80.00
2017-08-15T02:41:25.038Z,80.40
2017-08-15T02:43:52.693Z,79.70
2017-08-15T02:46:20.398Z,78.90
2017-08-15T02:48:48.121Z,78.90
2017-08-15T02:51:15.760Z,78.80
2017-08-15T02:53:43.442Z,79.00
2017-08-15T02:56:11.095Z,78.90
2017-08-15T02:58:38.716Z,78.90
2017-08-15T03:01:06.366Z,79.10
2017-08-15T03:03:33.997Z,78.00
2017-08-15T03:06:01.629Z,77.70
2017-08-15T03:08:29.295Z,78.80
2017-08-15T03:10:56.934Z,78.20
2017-08-15T03:13:24.636Z,77.50
2017-08-15T03:15:53.028Z,78.50
2017-08-15T03:18:20.660Z,78.50
2017-08-15T03:20:48.328Z,78.30
2017-08-15T03:23:15.952Z,78.60
2017-08-15T03:25:43.611Z,78.30
2017-08-15T03:28:11.248Z,77.30
2017-08-15T03:30:38.868Z,77.50
2017-08-15T03:33:06.540Z,77.90
2017-08-15T03:35:34.154Z,77.10
2017-08-15T03:38:01.815Z,77.80
2017-08-15T03:40:30.200Z,77.20
2017-08-15T03:42:57.833Z,77.20
2017-08-15T03:45:25.492Z,77.10
2017-08-15T03:47:53.128Z,76.90
2017-08-15T03:50:20.803Z,76.80
2017-08-15T03:52:48.441Z,77.40
2017-08-15T03:55:16.066Z,76.30
2017-08-15T03:57:43.753Z,77.10
2017-08-15T04:00:11.381Z,76.50
2017-08-15T04:02:39.058Z,76.50
2017-08-15T04:05:06.745Z,76.40
2017-08-15T04:07:35.135Z,76.20
2017-08-15T04:10:02.811Z,76.20
2017-08-15T04:12:30.435Z,75.90
2017-08-15T04:14:58.099Z,77.20
2017-08-15T04:17:25.767Z,76.80
2017-08-15T04:19:53.391Z,76.20
2017-08-15T04:22:21.066Z,75.80
2017-08-15T04:24:48.699Z,76.10
2017-08-15T04:27:16.371Z,75.80
2017-08-15T04:29:45.491Z,75.20
2017-08-15T04:32:13.137Z,75.20
2017-08-15T04:34:40.818Z,75.40
2017-08-15T04:37:08.445Z,75.80
2017-08-15T04:39:36.113Z,75.50
2017-08-15T04:42:03.753Z,75.30
2017-08-15T04:44:31.420Z,75.30
2017-08-15T04:46:59.111Z,74.90
2017-08-15T04:49:26.754Z,75.00
2017-08-15T04:51:54.423Z,74.20
2017-08-15T04:54:22.061Z,73.00
2017-08-15T04:56:49.752Z,72.50
2017-08-15T04:59:17.456Z,72.70
2017-08-15T05:01:45.091Z,70.80
2017-08-15T05:04:12.765Z,70.80
2017-08-15T05:06:40.387Z,71.20
2017-08-15T05:09:08.062Z,69.40
2017-08-15T05:11:35.716Z,67.00
2017-08-15T05:14:03.350Z,67.90
2017-08-15T05:16:31.008Z,66.80
2017-08-15T05:18:58.636Z,66.40
2017-08-15T05:21:26.235Z,65.20
2017-08-15T05:23:53.876Z,64.60
2017-08-15T05:26:21.486Z,63.80
2017-08-15T05:28:49.139Z,62.10
2017-08-15T05:31:16.748Z,64.30
2017-08-15T05:33:45.124Z,60.40
2017-08-15T05:36:12.797Z,60.40
2017-08-15T05:38:40.431Z,57.10
2017-08-15T05:41:08.078Z,59.80
2017-08-15T05:43:35.697Z,61.50
2017-08-15T05:46:04.117Z,59.70
2017-08-15T05:48:31.845Z,59.60
2017-08-15T05:50:59.469Z,55.50
2017-08-15T05:53:27.129Z,57.70
2017-08-15T05:55:54.734Z,57.80
2017-08-15T05:58:22.349Z,54.60
2017-08-15T06:00:49.997Z,52.80
2017-08-15T06:03:17.613Z,54.10
2017-08-15T06:05:45.257Z,53.30
2017-08-15T06:08:12.877Z,55.20
2017-08-15T06:10:41.258Z,52.40
2017-08-15T06:13:08.927Z,51.80
2017-08-15T06:15:36.541Z,48.60
2017-08-15T06:18:04.953Z,46.70
2017-08-15T06:20:32.705Z,46.80
2017-08-15T06:23:00.315Z,44.10
2017-08-15T06:25:27.967Z,45.10
2017-08-15T06:27:55.585Z,43.40
2017-08-15T06:30:23.997Z,47.20
2017-08-15T06:32:51.593Z,47.10
2017-08-15T06:35:19.987Z,45.20
2017-08-15T06:37:47.625Z,45.20
2017-08-15T06:40:15.241Z,36.30
2017-08-15T06:42:42.886Z,36.60
2017-08-15T06:45:10.479Z,35.90
2017-08-15T06:47:38.076Z,32.90
2017-08-15T06:50:05.708Z,31.00
2017-08-15T06:52:33.327Z,31.30
2017-08-15T06:55:00.978Z,28.20
2017-08-15T06:57:28.629Z,28.60
2017-08-15T06:59:56.241Z,25.00
2017-08-15T07:02:23.885Z,26.80
2017-08-15T07:04:51.498Z,24.30
2017-08-15T07:07:19.144Z,23.20
2017-08-15T07:09:46.749Z,21.90
2017-08-15T07:12:14.344Z,21.90
2017-08-15T07:14:42.009Z,21.10
2017-08-15T07:17:10.382Z,22.50
2017-08-15T07:19:38.028Z,22.50
2017-08-15T07:22:05.630Z,21.20
2017-08-15T07:24:33.232Z,20.50
2017-08-15T07:27:00.870Z,22.20
2017-08-15T07:29:28.468Z,20.20
2017-08-15T07:31:56.107Z,19.30
2017-08-15T07:34:23.716Z,19.80
2017-08-15T07:36:51.325Z,18.30
2017-08-15T07:39:19.166Z,19.70
2017-08-15T07:41:46.828Z,19.70
2017-08-15T07:44:15.401Z,19.90
2017-08-15T07:46:43.767Z,19.40
2017-08-15T07:49:11.378Z,19.30
2017-08-15T07:51:39.041Z,19.60
2017-08-15T07:54:07.420Z,18.90
2017-08-15T07:56:35.829Z,18.20
2017-08-15T07:59:03.445Z,18.50
2017-08-15T08:01:31.077Z,17.60
2017-08-15T08:03:59.493Z,17.90
2017-08-15T08:06:27.095Z,17.90
2017-08-15T08:08:54.728Z,18.60
2017-08-15T08:11:23.101Z,18.80
2017-08-15T08:13:51.480Z,18.90
2017-08-15T08:16:19.155Z,18.90
2017-08-15T08:18:46.753Z,17.80
2017-08-15T08:21:15.758Z,17.40
2017-08-15T08:23:43.366Z,17.30
2017-08-15T08:26:11.789Z,18.50
2017-08-15T08:28:39.464Z,18.60
2017-08-15T08:31:07.066Z,18.20
2017-08-15T08:33:34.701Z,17.30
2017-08-15T08:36:02.298Z,17.30
2017-08-15T08:38:29.924Z,17.00
2017-08-15T08:40:57.559Z,18.00
2017-08-15T08:43:25.176Z,17.10
2017-08-15T08:45:52.821Z,16.70
2017-08-15T08:48:20.461Z,15.30
2017-08-15T08:50:48.841Z,16.00
2017-08-15T08:53:16.504Z,15.90
2017-08-15T08:55:44.122Z,15.70
2017-08-15T08:58:12.531Z,14.70
2017-08-15T09:00:40.154Z,14.60
2017-08-15T09:03:07.767Z,16.00
2017-08-15T09:05:36.197Z,15.70
2017-08-15T09:08:03.810Z,15.70
2017-08-15T09:10:31.448Z,14.60
2017-08-15T09:12:59.072Z,14.60
2017-08-15T09:15:26.688Z,15.50
2017-08-15T09:17:54.325Z,16.10
2017-08-15T09:20:21.940Z,16.40
2017-08-15T09:22:49.640Z,16.80
2017-08-15T09:25:17.256Z,15.60
2017-08-15T09:27:44.861Z,15.60
2017-08-15T09:30:12.510Z,16.10
2017-08-15T09:32:40.213Z,15.50
2017-08-15T09:35:07.856Z,16.40
2017-08-15T09:37:35.468Z,15.30
2017-08-15T09:40:04.763Z,16.70
2017-08-15T09:42:32.406Z,17.00
2017-08-15T09:45:00.037Z,16.60
2017-08-15T09:47:27.681Z,16.80
2017-08-15T09:49:55.271Z,16.00
2017-08-15T09:52:22.890Z,16.80
2017-08-15T09:54:50.552Z,16.20
2017-08-15T09:57:18.176Z,16.90
2017-08-15T09:59:45.820Z,17.00
2017-08-15T10:02:13.441Z,17.60
2017-08-15T10:04:41.102Z,17.80
2017-08-15T10:07:08.709Z,18.70
2017-08-15T10:09:36.320Z,18.70
2017-08-15T10:12:03.972Z,19.30
2017-08-15T10:14:31.581Z,19.80
2017-08-15T10:16:59.220Z,20.00
2017-08-15T10:19:27.601Z,20.50
2017-08-15T10:21:55.216Z,20.50
2017-08-15T10:24:23.617Z,18.50
2017-08-15T10:26:51.231Z,18.40
2017-08-15T10:29:19.664Z,17.00
2017-08-15T10:31:47.282Z,17.00
2017-08-15T10:34:14.898Z,17.40
2017-08-15T10:36:43.298Z,19.10
2017-08-15T10:39:10.913Z,19.10
2017-08-15T10:41:38.542Z,18.90
2017-08-15T10:44:06.911Z,18.90
2017-08-15T10:46:35.272Z,19.20
2017-08-15T10:49:03.693Z,18.80
2017-08-15T10:51:31.292Z,18.80
2017-08-15T10:53:59.714Z,18.40
2017-08-15T10:56:27.308Z,18.30
2017-08-15T10:58:54.911Z,17.70
2017-08-15T11:01:22.554Z,17.10
2017-08-15T11:03:50.152Z,16.70
2017-08-15T11:06:17.815Z,16.80
2017-08-15T11:08:45.436Z,15.60
2017-08-15T11:11:13.033Z,17.30
2017-08-15T11:13:40.677Z,16.00
2017-08-15T11:16:08.287Z,15.90
2017-08-15T11:18:35.926Z,15.80
2017-08-15T11:21:03.544Z,16.20
2017-08-15T11:23:31.162Z,16.60
2017-08-15T11:25:58.795Z,16.20
2017-08-15T11:28:26.397Z,16.90
2017-08-15T11:30:54.050Z,17.30
2017-08-15T11:33:21.657Z,16.50
2017-08-15T11:35:49.290Z,17.00
2017-08-15T11:38:16.951Z,16.20
2017-08-15T11:40:44.562Z,18.20
2017-08-15T11:43:12.505Z,18.90
2017-08-15T11:45:40.117Z,17.40
2017-08-15T11:48:08.483Z,17.90
2017-08-15T11:50:36.131Z,17.90
2017-08-15T11:53:04.513Z,18.30
2017-08-15T11:55:32.150Z,18.30
2017-08-15T11:58:00.541Z,18.00
2017-08-15T12:00:28.153Z,17.90
2017-08-15T12:02:56.561Z,18.50
2017-08-15T12:05:24.165Z,18.50
2017-08-15T12:07:52.594Z,18.40
2017-08-15T12:10:20.217Z,18.30
2017-08-15T12:12:47.832Z,19.50
2017-08-15T12:15:15.478Z,19.10
2017-08-15T12:17:43.089Z,19.10
2017-08-15T12:20:10.734Z,18.30
2017-08-15T12:22:38.350Z,18.40
2017-08-15T12:25:05.960Z,18.40
2017-08-15T12:27:33.605Z,18.30
2017-08-15T12:30:01.976Z,20.40
2017-08-15T12:32:29.670Z,19.90
2017-08-15T12:34:57.268Z,20.20
2017-08-15T12:37:24.874Z,18.50
2017-08-15T12:39:52.519Z,18.70
2017-08-15T12:42:20.160Z,18.70
2017-08-15T12:44:47.803Z,18.40
2017-08-15T12:47:15.408Z,17.20
2017-08-15T12:49:43.010Z,16.00
2017-08-15T12:52:10.665Z,17.00
2017-08-15T12:54:38.272Z,17.10
2017-08-15T12:57:05.902Z,17.10
2017-08-15T12:59:33.515Z,18.70
2017-08-15T13:02:01.134Z,17.60
2017-08-15T13:04:28.759Z,16.90
2017-08-15T13:06:56.377Z,16.60
2017-08-15T13:09:24.021Z,18.00
2017-08-15T13:11:52.616Z,17.60
2017-08-15T13:14:20.777Z,17.50
2017-08-15T13:16:48.436Z,17.30
2017-08-15T13:19:16.048Z,17.40
2017-08-15T13:21:43.699Z,16.90
2017-08-15T13:24:11.310Z,17.40
2017-08-15T13:26:39.681Z,17.10
2017-08-15T13:29:07.317Z,17.10
2017-08-15T13:31:35.691Z,16.30
2017-08-15T13:34:03.330Z,16.60
2017-08-15T13:36:31.700Z,17.00
2017-08-15T13:39:00.069Z,17.30
2017-08-15T13:41:28.477Z,18.10
2017-08-15T13:43:56.097Z,18.10
2017-08-15T13:46:23.738Z,17.40
2017-08-15T13:48:51.339Z,17.20
2017-08-15T13:51:18.968Z,16.20
2017-08-15T13:53:46.737Z,16.40
2017-08-15T13:56:14.328Z,17.30
2017-08-15T13:58:41.960Z,17.00
2017-08-15T14:01:10.338Z,16.10
2017-08-15T14:03:37.940Z,16.10
2017-08-15T14:06:05.584Z,15.30
2017-08-15T14:08:33.191Z,16.40
2017-08-15T14:11:00.837Z,15.80
2017-08-15T14:13:28.447Z,16.60
2017-08-15T14:15:56.819Z,17.80
2017-08-15T14:18:25.230Z,17.90
2017-08-15T14:20:52.828Z,17.90
2017-08-15T14:23:21.240Z,18.10
2017-08-15T14:25:48.866Z,18.10
2017-08-15T14:28:16.480Z,18.60
2017-08-15T14:30:44.150Z,18.10
2017-08-15T14:33:11.755Z,17.90
2017-08-15T14:35:39.481Z,18.30
2017-08-15T14:38:07.079Z,18.60
2017-08-15T14:40:35.171Z,18.40
2017-08-15T14:43:02.838Z,18.70
2017-08-15T14:45:30.456Z,19.30
2017-08-15T14:47:58.088Z,19.10
2017-08-15T14:50:25.695Z,19.10
2017-08-15T14:52:53.300Z,19.00
2017-08-15T14:55:21.025Z,19.00
2017-08-15T14:57:48.673Z,19.20
2017-08-15T15:00:16.337Z,19.50
2017-08-15T15:02:43.950Z,19.70
2017-08-15T15:05:11.568Z,19.40
2017-08-15T15:07:39.201Z,19.30
2017-08-15T15:10:06.811Z,19.30
2017-08-15T15:12:34.469Z,19.60
2017-08-15T15:15:02.079Z,19.60
2017-08-15T15:17:30.467Z,20.00
2017-08-15T15:19:58.115Z,20.00
2017-08-15T15:22:25.722Z,20.20
2017-08-15T15:24:54.129Z,20.60
2017-08-15T15:27:21.739Z,20.40
2017-08-15T15:29:50.109Z,21.20
2017-08-15T15:32:17.761Z,21.20
2017-08-15T15:34:45.365Z,20.70
2017-08-15T15:37:13.021Z,20.90
2017-08-15T15:39:40.633Z,21.50
2017-08-15T15:42:08.247Z,21.10
2017-08-15T15:44:35.893Z,21.20
2017-08-15T15:47:03.492Z,21.40
2017-08-15T15:49:31.110Z,21.50
2017-08-15T15:51:58.707Z,21.70
2017-08-15T15:54:26.299Z,21.30
2017-08-15T15:56:53.930Z,20.80
2017-08-15T15:59:21.620Z,20.40
2017-08-15T16:01:49.274Z,20.50
2017-08-15T16:04:16.882Z,21.00
2017-08-15T16:06:45.039Z,20.80
2017-08-15T16:09:12.670Z,21.00
2017-08-15T16:11:40.287Z,21.10
2017-08-15T16:14:07.929Z,21.20
2017-08-15T16:16:35.541Z,21.60
2017-08-15T16:19:03.143Z,21.90
2017-08-15T16:21:31.553Z,21.70
2017-08-15T16:23:59.213Z,21.60
2017-08-15T16:26:26.862Z,22.00
2017-08-15T16:28:54.501Z,22.30
2017-08-15T16:31:22.122Z,22.60
2017-08-15T16:33:49.831Z,21.30
2017-08-15T16:36:18.205Z,21.90
2017-08-15T16:38:46.708Z,21.50
2017-08-15T16:41:14.685Z,21.50
2017-08-15T16:43:42.313Z,21.90
2017-08-15T16:46:09.943Z,22.50
2017-08-15T16:48:37.541Z,23.00
2017-08-15T16:51:13.398Z,23.10
2017-08-15T16:53:41.245Z,22.80
2017-08-15T16:56:09.617Z,23.70
2017-08-15T16:58:37.255Z,24.30
2017-08-15T17:01:05.628Z,23.60
2017-08-15T17:03:33.251Z,23.50
2017-08-15T17:06:00.883Z,23.30
2017-08-15T17:08:28.480Z,23.10
2017-08-15T17:10:56.168Z,23.70
2017-08-15T17:13:23.775Z,23.60
2017-08-15T17:15:51.390Z,23.90
2017-08-15T17:18:19.865Z,23.90
2017-08-15T17:20:47.508Z,23.70
2017-08-15T17:23:15.916Z,24.10
2017-08-15T17:25:43.528Z,24.10
2017-08-15T17:28:11.140Z,24.70
2017-08-15T17:30:38.782Z,24.20
2017-08-15T17:33:06.383Z,24.40
2017-08-15T17:35:34.034Z,26.10
2017-08-15T17:38:01.636Z,24.90
2017-08-15T17:40:29.255Z,24.90
2017-08-15T17:42:56.891Z,25.10
2017-08-15T17:45:24.503Z,25.60
2017-08-15T17:47:52.135Z,25.30
2017-08-15T17:50:20.537Z,26.00
2017-08-15T17:52:48.141Z,26.00
2017-08-15T17:55:16.554Z,26.50
2017-08-15T17:57:44.163Z,26.60
2017-08-15T18:00:12.569Z,25.80
2017-08-15T18:02:40.181Z,25.80
2017-08-15T18:05:07.789Z,25.70
2017-08-15T18:07:35.434Z,25.60
2017-08-15T18:10:05.017Z,25.40
2017-08-15T18:12:32.761Z,26.00
2017-08-15T18:15:00.367Z,26.00
2017-08-15T18:17:27.966Z,26.10
2017-08-15T18:19:55.652Z,25.70
2017-08-15T18:22:23.325Z,25.70
2017-08-15T18:24:51.039Z,25.40
2017-08-15T18:27:18.648Z,26.30
2017-08-15T18:29:46.251Z,25.90
2017-08-15T18:32:13.911Z,26.10
2017-08-15T18:34:41.510Z,26.10
2017-08-15T18:37:09.947Z,26.80
2017-08-15T18:39:37.544Z,26.70
2017-08-15T18:42:05.215Z,27.10
2017-08-15T18:44:32.864Z,27.00
2017-08-15T18:47:00.469Z,27.70
2017-08-15T18:49:28.108Z,27.90
2017-08-15T18:51:56.479Z,30.70
2017-08-15T18:54:24.859Z,30.30
2017-08-15T18:56:52.504Z,30.50
2017-08-15T18:59:20.113Z,30.10
2017-08-15T19:01:47.754Z,29.00
2017-08-15T19:04:15.393Z,35.80
2017-08-15T19:06:43.019Z,31.60
2017-08-15T19:09:10.653Z,33.90
2017-08-15T19:11:38.269Z,33.20
2017-08-15T19:14:05.911Z,32.00
2017-08-15T19:16:33.527Z,32.30
2017-08-15T19:19:01.123Z,33.00
2017-08-15T19:21:28.752Z,33.10
2017-08-15T19:23:57.134Z,30.90
2017-08-15T19:26:24.950Z,30.80
2017-08-15T19:28:52.713Z,29.70
2017-08-15T19:31:21.083Z,30.40
2017-08-15T19:33:49.529Z,31.50
2017-08-15T19:36:17.175Z,31.50
2017-08-15T19:38:44.964Z,29.30
2017-08-15T19:41:12.704Z,31.40
2017-08-15T19:43:40.367Z,33.00
2017-08-15T19:46:08.026Z,30.40
2017-08-15T19:48:35.696Z,30.50
2017-08-15T19:51:03.494Z,30.00
2017-08-15T19:53:31.123Z,29.90
2017-08-15T19:55:59.494Z,30.80
2017-08-15T19:58:27.132Z,30.60
2017-08-15T20:00:55.507Z,29.90
2017-08-15T20:03:23.157Z,29.80
2017-08-15T20:05:50.764Z,29.30
2017-08-15T20:08:18.376Z,29.70
2017-08-15T20:10:46.040Z,29.60
2017-08-15T20:13:13.643Z,29.90
2017-08-15T20:15:41.275Z,30.10
2017-08-15T20:18:09.674Z,30.30
2017-08-15T20:20:37.319Z,30.30
2017-08-15T20:23:04.987Z,29.70
2017-08-15T20:25:32.658Z,28.70
2017-08-15T20:28:00.322Z,29.10
2017-08-15T20:30:29.046Z,33.60
2017-08-15T20:32:56.655Z,33.30
2017-08-15T20:35:24.297Z,30.90
2017-08-15T20:37:52.719Z,33.40
2017-08-15T20:40:20.376Z,33.30
2017-08-15T20:42:48.037Z,31.30
2017-08-15T20:45:16.424Z,35.20
2017-08-15T20:47:44.061Z,35.50
2017-08-15T20:50:12.441Z,37.30
2017-08-15T20:52:40.072Z,37.30
2017-08-15T20:55:08.460Z,37.70
2017-08-15T20:57:36.072Z,37.70
2017-08-15T21:00:04.488Z,43.30
2017-08-15T21:02:32.094Z,43.10
2017-08-15T21:04:59.756Z,44.60
2017-08-15T21:07:27.363Z,44.60
2017-08-15T21:09:54.971Z,45.20
2017-08-15T21:12:22.630Z,45.90
2017-08-15T21:14:50.260Z,46.60
2017-08-15T21:17:17.927Z,46.10
2017-08-15T21:19:45.679Z,44.50
2017-08-15T21:22:13.279Z,48.70
2017-08-15T21:24:40.930Z,48.10
2017-08-15T21:27:08.545Z,49.40
2017-08-15T21:29:36.992Z,52.00
2017-08-15T21:32:04.629Z,52.00
2017-08-15T21:34:32.241Z,53.40
2017-08-15T21:36:59.924Z,55.40
2017-08-15T21:39:27.527Z,55.70
2017-08-15T21:41:55.163Z,56.40
2017-08-15T21:44:22.782Z,55.90
2017-08-15T21:46:50.430Z,56.00
2017-08-15T21:49:18.044Z,57.00
2017-08-15T21:51:45.662Z,56.90
2017-08-15T21:54:13.367Z,57.20
2017-08-15T21:56:40.982Z,57.50
2017-08-15T21:59:08.622Z,56.90
2017-08-15T22:01:41.827Z,54.50
2017-08-15T22:04:09.477Z,54.00
2017-08-15T22:06:37.132Z,54.60
2017-08-15T22:09:05.546Z,58.40
2017-08-15T22:11:33.183Z,58.20
2017-08-15T22:14:00.808Z,59.60
2017-08-15T22:16:28.485Z,59.20
2017-08-15T22:18:56.125Z,61.20
2017-08-15T22:21:23.740Z,63.40
2017-08-15T22:23:51.371Z,62.70
2017-08-15T22:26:19.858Z,62.80
2017-08-15T22:28:48.275Z,63.70
2017-08-15T22:31:15.896Z,63.70
2017-08-15T22:33:43.503Z,64.10
2017-08-15T22:36:11.918Z,64.60
2017-08-15T22:38:39.531Z,64.60
2017-08-15T22:41:07.174Z,65.00
2017-08-15T22:43:35.552Z,66.30
2017-08-15T22:46:03.166Z,66.10
2017-08-15T22:48:31.591Z,67.40
2017-08-15T22:50:59.190Z,66.70
2017-08-15T22:53:27.591Z,65.30
2017-08-15T22:55:55.187Z,65.30
2017-08-15T22:58:23.561Z,67.40
2017-08-15T23:00:51.952Z,67.60
2017-08-15T23:03:19.621Z,67.60
2017-08-15T23:05:47.270Z,67.60
2017-08-15T23:08:14.894Z,67.30
2017-08-15T23:10:42.508Z,65.50
2017-08-15T23:13:10.928Z,64.20
2017-08-15T23:15:38.550Z,64.20
2017-08-15T23:18:06.196Z,65.90
2017-08-15T23:20:33.814Z,65.40
2017-08-15T23:23:01.424Z,65.60
2017-08-15T23:25:29.055Z,61.60
2017-08-15T23:27:56.669Z,59.90
2017-08-15T23:30:24.317Z,63.70
2017-08-15T23:32:51.925Z,64.60
2017-08-15T23:35:19.572Z,65.40
2017-08-15T23:37:47.225Z,65.80
2017-08-15T23:40:16.455Z,66.40
2017-08-15T23:42:44.098Z,65.80
2017-08-15T23:45:11.709Z,65.30
2017-08-15T23:47:39.316Z,67.00
2017-08-15T23:50:06.950Z,67.60
2017-08-15T23:52:34.552Z,68.80
2017-08-15T23:55:02.197Z,67.70
2017-08-15T23:57:30.572Z,68.80
2017-08-15T23:59:58.188Z,68.70
